createdAt,value
2023-05-19T00:00:48.121Z,44.29
2023-05-19T00:01:52.340Z,44.21
2023-05-19T00:02:58.507Z,44.27
2023-05-19T00:04:04.451Z,44.23
2023-05-19T00:05:10.557Z,44.31
2023-05-19T00:06:16.850Z,44.31
2023-05-19T00:07:22.820Z,44.3
2023-05-19T00:08:28.912Z,44.33
2023-05-19T00:09:35.013Z,44.27
2023-05-19T00:10:41.089Z,44.24
2023-05-19T00:11:47.202Z,44.29
2023-05-19T00:12:53.955Z,44.24
2023-05-19T00:13:59.390Z,44.3
2023-05-19T00:15:05.467Z,44.31
2023-05-19T00:16:11.590Z,44.33
2023-05-19T00:17:17.703Z,44.32
2023-05-19T00:18:23.783Z,44.21
2023-05-19T00:19:29.902Z,44.2
2023-05-19T00:20:36.025Z,44.2
2023-05-19T00:21:42.037Z,44.25
2023-05-19T00:22:48.072Z,44.28
2023-05-19T00:23:54.284Z,44.28
2023-05-19T00:25:00.273Z,44.34
2023-05-19T00:26:06.420Z,44.29
2023-05-19T00:27:12.516Z,44.29
2023-05-19T00:28:18.603Z,44.21
2023-05-19T00:29:24.728Z,44.25
2023-05-19T00:30:31.081Z,44.29
2023-05-19T00:31:36.918Z,44.29
2023-05-19T00:32:43.165Z,44.25
2023-05-19T00:33:49.092Z,44.26
2023-05-19T00:34:55.200Z,44.23
2023-05-19T00:36:01.213Z,44.26
2023-05-19T00:37:07.323Z,44.31
2023-05-19T00:38:13.490Z,44.27
2023-05-19T00:39:19.579Z,44.32
2023-05-19T00:40:25.658Z,44.22
2023-05-19T00:41:31.764Z,44.16
2023-05-19T00:42:37.840Z,44.17
2023-05-19T00:43:43.914Z,44.24
2023-05-19T00:44:50.033Z,44.23
2023-05-19T00:45:56.140Z,44.32
2023-05-19T00:47:02.600Z,44.3
2023-05-19T00:48:08.379Z,44.29
2023-05-19T00:49:14.345Z,44.29
2023-05-19T00:50:20.504Z,44.25
2023-05-19T00:51:26.625Z,44.21
2023-05-19T00:52:32.694Z,44.29
2023-05-19T00:53:38.772Z,44.21
2023-05-19T00:54:44.906Z,44.22
2023-05-19T00:55:50.974Z,44.2
2023-05-19T00:56:57.085Z,44.26
2023-05-19T00:58:03.073Z,44.12
2023-05-19T00:59:09.256Z,44.25
2023-05-19T01:00:15.272Z,44.24
2023-05-19T01:01:21.596Z,44.24
2023-05-19T01:02:27.609Z,44.18
2023-05-19T01:03:33.714Z,44.04
2023-05-19T01:04:39.735Z,44.1
2023-05-19T01:05:45.835Z,44.19
2023-05-19T01:06:51.847Z,44.19
2023-05-19T01:07:58.031Z,44.18
2023-05-19T01:09:04.121Z,44.26
2023-05-19T01:10:10.216Z,44.25
2023-05-19T01:11:16.296Z,44.21
2023-05-19T01:12:22.402Z,44.08
2023-05-19T01:13:28.539Z,44.16
2023-05-19T01:14:34.583Z,44.1
2023-05-19T01:15:40.669Z,44
2023-05-19T01:16:46.876Z,44.08
2023-05-19T01:17:52.821Z,44.17
2023-05-19T01:18:58.999Z,44.17
2023-05-19T01:20:04.981Z,44.15
2023-05-19T01:21:11.188Z,44.12
2023-05-19T01:22:17.257Z,44.1
2023-05-19T01:23:23.346Z,44.16
2023-05-19T01:24:29.437Z,44.12
2023-05-19T01:25:35.546Z,44.15
2023-05-19T01:26:41.641Z,44.13
2023-05-19T01:27:47.725Z,44.21
2023-05-19T01:28:53.884Z,44.13
2023-05-19T01:29:59.906Z,44.22
2023-05-19T01:32:12.117Z,44.24
2023-05-19T01:33:18.181Z,44.16
2023-05-19T01:34:24.300Z,44.14
2023-05-19T01:35:30.426Z,44.06
2023-05-19T01:36:36.487Z,44.08
2023-05-19T01:37:42.575Z,44.12
2023-05-19T01:38:48.678Z,44.12
2023-05-19T01:39:54.766Z,44.14
2023-05-19T01:41:00.845Z,44.22
2023-05-19T01:42:06.951Z,44.22
2023-05-19T01:43:13.036Z,44.23
2023-05-19T01:44:19.145Z,44.18
2023-05-19T01:45:25.230Z,44.2
2023-05-19T01:46:31.448Z,44.16
2023-05-19T01:47:37.470Z,44.27
2023-05-19T01:48:43.518Z,44.31
2023-05-19T01:49:49.622Z,44.25
2023-05-19T01:50:55.717Z,44.25
2023-05-19T01:52:01.801Z,44.29
2023-05-19T01:53:07.929Z,44.3
2023-05-19T01:54:13.918Z,44.22
2023-05-19T01:55:20.001Z,44.25
2023-05-19T01:56:26.189Z,44.31
2023-05-19T01:57:32.285Z,44.3
2023-05-19T01:58:38.384Z,44.28
2023-05-19T01:59:44.468Z,44.28
2023-05-19T02:00:50.586Z,44.24
2023-05-19T02:01:56.571Z,44.28
2023-05-19T02:03:02.777Z,44.28
2023-05-19T02:04:08.890Z,44.22
2023-05-19T02:05:14.916Z,44.24
2023-05-19T02:06:21.042Z,44.26
2023-05-19T02:07:27.140Z,44.27
2023-05-19T02:08:33.265Z,44.26
2023-05-19T02:09:39.328Z,44.27
2023-05-19T02:10:45.421Z,44.28
2023-05-19T02:11:51.513Z,44.16
2023-05-19T02:12:57.609Z,44.09
2023-05-19T02:14:03.617Z,44.2
2023-05-19T02:15:09.718Z,44.18
2023-05-19T02:16:15.964Z,44.11
2023-05-19T02:17:22.039Z,44.14
2023-05-19T02:18:28.100Z,44.14
2023-05-19T02:19:34.177Z,44.26
2023-05-19T02:20:40.267Z,44.19
2023-05-19T02:21:46.353Z,44.19
2023-05-19T02:22:52.442Z,44.21
2023-05-19T02:23:58.537Z,44.23
2023-05-19T02:25:04.691Z,44.27
2023-05-19T02:26:10.743Z,44.19
2023-05-19T02:27:16.758Z,44.21
2023-05-19T02:28:22.928Z,44.21
2023-05-19T02:29:29.005Z,44.13
2023-05-19T02:30:35.204Z,44.21
2023-05-19T02:31:41.247Z,44.21
2023-05-19T02:32:47.373Z,44.14
2023-05-19T02:33:53.402Z,44.11
2023-05-19T02:34:59.496Z,44.14
2023-05-19T02:36:05.579Z,44.19
2023-05-19T02:37:11.690Z,44.2
2023-05-19T02:38:17.690Z,44.14
2023-05-19T02:39:23.873Z,44.27
2023-05-19T02:40:30.126Z,44.21
2023-05-19T02:41:36.086Z,44.19
2023-05-19T02:42:42.185Z,44.19
2023-05-19T02:43:48.238Z,44.16
2023-05-19T02:44:54.339Z,44.13
2023-05-19T02:46:00.536Z,44.28
2023-05-19T02:47:06.562Z,44.25
2023-05-19T02:48:12.698Z,44.1
2023-05-19T02:49:18.729Z,44.1
2023-05-19T02:50:24.813Z,44.23
2023-05-19T02:51:30.936Z,44.21
2023-05-19T02:52:37.006Z,44.24
2023-05-19T02:53:43.093Z,44.23
2023-05-19T02:54:49.226Z,44.27
2023-05-19T02:55:55.287Z,44.26
2023-05-19T02:57:01.386Z,44.32
2023-05-19T02:58:07.519Z,44.31
2023-05-19T02:59:13.566Z,44.22
2023-05-19T03:00:19.658Z,44.17
2023-05-19T03:01:25.763Z,44.22
2023-05-19T03:02:31.945Z,44.31
2023-05-19T03:03:38.086Z,44.33
2023-05-19T03:04:44.031Z,44.25
2023-05-19T03:05:50.130Z,44.24
2023-05-19T03:06:56.230Z,44.24
2023-05-19T03:08:02.328Z,44.12
2023-05-19T03:09:08.422Z,44.19
2023-05-19T03:10:14.542Z,44.3
2023-05-19T03:11:20.619Z,44.22
2023-05-19T03:12:26.713Z,44.11
2023-05-19T03:13:32.807Z,44.22
2023-05-19T03:14:38.888Z,44.24
2023-05-19T03:15:44.983Z,44.21
2023-05-19T03:16:51.280Z,44.25
2023-05-19T03:17:57.280Z,44.22
2023-05-19T03:19:03.370Z,44.3
2023-05-19T03:20:09.380Z,44.29
2023-05-19T03:21:15.387Z,44.34
2023-05-19T03:22:21.539Z,44.29
2023-05-19T03:23:27.683Z,44.24
2023-05-19T03:24:33.751Z,44.24
2023-05-19T03:25:39.875Z,44.32
2023-05-19T03:26:45.937Z,44.29
2023-05-19T03:27:52.045Z,44.24
2023-05-19T03:29:04.193Z,44.1
2023-05-19T03:30:10.381Z,44.2
2023-05-19T03:31:16.465Z,44.18
2023-05-19T03:32:22.620Z,44.17
2023-05-19T03:33:28.702Z,44.1
2023-05-19T03:34:34.748Z,44.15
2023-05-19T03:35:40.835Z,44.19
2023-05-19T03:36:46.929Z,44.09
2023-05-19T03:37:53.043Z,44.01
2023-05-19T03:38:59.152Z,44.09
2023-05-19T03:40:05.164Z,44.12
2023-05-19T03:41:11.238Z,44.11
2023-05-19T03:42:17.423Z,44.07
2023-05-19T03:43:23.509Z,44.13
2023-05-19T03:44:29.604Z,44.15
2023-05-19T03:45:35.703Z,44.1
2023-05-19T03:46:41.823Z,44.02
2023-05-19T03:47:47.955Z,44.02
2023-05-19T03:48:53.902Z,44.15
2023-05-19T03:50:00.129Z,44.05
2023-05-19T03:51:06.183Z,44.03
2023-05-19T03:52:12.256Z,44.11
2023-05-19T03:53:18.344Z,44.12
2023-05-19T03:54:24.449Z,44.18
2023-05-19T03:55:30.595Z,44.13
2023-05-19T03:56:36.631Z,44.09
2023-05-19T03:57:42.721Z,44.11
2023-05-19T03:58:48.847Z,44.1
2023-05-19T03:59:54.911Z,44.12
2023-05-19T04:01:01.000Z,44.11
2023-05-19T04:02:08.262Z,44.11
2023-05-19T04:03:13.269Z,43.98
2023-05-19T04:04:19.331Z,44.04
2023-05-19T04:05:25.383Z,44.08
2023-05-19T04:06:31.538Z,44.1
2023-05-19T04:07:37.583Z,44.13
2023-05-19T04:08:43.689Z,44.11
2023-05-19T04:09:49.790Z,44.11
2023-05-19T04:10:55.801Z,44.14
2023-05-19T04:12:01.887Z,44.12
2023-05-19T04:13:08.054Z,44.08
2023-05-19T04:14:14.087Z,44.12
2023-05-19T04:15:20.236Z,44.12
2023-05-19T04:16:26.454Z,44.08
2023-05-19T04:17:32.509Z,44.13
2023-05-19T04:18:38.586Z,44.21
2023-05-19T04:19:44.626Z,44.13
2023-05-19T04:20:50.722Z,44.12
2023-05-19T04:21:56.834Z,44.07
2023-05-19T04:23:02.829Z,44.05
2023-05-19T04:24:08.924Z,44.03
2023-05-19T04:25:15.161Z,43.96
2023-05-19T04:26:21.197Z,44.14
2023-05-19T04:27:27.284Z,44.21
2023-05-19T04:28:33.364Z,44.22
2023-05-19T04:29:39.484Z,44.25
2023-05-19T04:30:45.679Z,44.17
2023-05-19T04:31:51.660Z,44.25
2023-05-19T04:32:57.780Z,44.2
2023-05-19T04:34:03.872Z,44.23
2023-05-19T04:35:09.959Z,44.26
2023-05-19T04:36:16.028Z,44.2
2023-05-19T04:37:22.142Z,44.14
2023-05-19T04:38:28.230Z,44.2
2023-05-19T04:39:34.339Z,44.18
2023-05-19T04:40:40.426Z,44.2
2023-05-19T04:41:46.529Z,44.21
2023-05-19T04:42:52.653Z,44.2
2023-05-19T04:43:58.728Z,44.16
2023-05-19T04:45:04.732Z,44.21
2023-05-19T04:46:12.493Z,44.12
2023-05-19T04:47:16.973Z,44.25
2023-05-19T04:48:23.125Z,44.16
2023-05-19T04:49:29.192Z,44.23
2023-05-19T04:50:35.430Z,44.16
2023-05-19T04:51:41.425Z,44.27
2023-05-19T04:52:47.482Z,44.12
2023-05-19T04:53:53.714Z,44.11
2023-05-19T04:54:59.636Z,44.13
2023-05-19T04:56:05.769Z,44.21
2023-05-19T04:57:11.837Z,44.07
2023-05-19T04:58:17.928Z,44.12
2023-05-19T04:59:24.022Z,44.1
2023-05-19T05:00:30.171Z,44.14
2023-05-19T05:01:36.243Z,44.12
2023-05-19T05:02:42.368Z,44.05
2023-05-19T05:03:48.483Z,44.13
2023-05-19T05:04:54.562Z,44.15
2023-05-19T05:06:00.605Z,44.14
2023-05-19T05:07:06.694Z,44.24
2023-05-19T05:08:12.697Z,44.27
2023-05-19T05:09:18.862Z,44.17
2023-05-19T05:10:24.985Z,44.15
2023-05-19T05:11:31.081Z,44.1
2023-05-19T05:12:37.158Z,44.06
2023-05-19T05:13:43.277Z,44.11
2023-05-19T05:14:49.342Z,44.15
2023-05-19T05:15:55.453Z,44.22
2023-05-19T05:17:01.556Z,44.22
2023-05-19T05:18:07.721Z,44.1
2023-05-19T05:19:13.766Z,44.24
2023-05-19T05:20:19.752Z,44.26
2023-05-19T05:21:25.903Z,44.23
2023-05-19T05:22:32.008Z,44.17
2023-05-19T05:23:38.094Z,44.2
2023-05-19T05:24:44.249Z,44.14
2023-05-19T05:25:50.287Z,44.08
2023-05-19T05:26:56.390Z,44.08
2023-05-19T05:28:02.488Z,44.14
2023-05-19T05:29:08.557Z,44.15
2023-05-19T05:30:14.694Z,44.08
2023-05-19T05:31:20.779Z,44.18
2023-05-19T05:32:26.838Z,44.13
2023-05-19T05:33:33.020Z,44.12
2023-05-19T05:34:39.039Z,44.16
2023-05-19T05:35:45.140Z,44.18
2023-05-19T05:36:51.230Z,44.2
2023-05-19T05:37:57.316Z,44.14
2023-05-19T05:39:03.442Z,44.18
2023-05-19T05:40:09.539Z,44.17
2023-05-19T05:41:15.531Z,44.1
2023-05-19T05:42:21.720Z,44.14
2023-05-19T05:43:27.806Z,44.06
2023-05-19T05:44:33.902Z,44.09
2023-05-19T05:45:40.079Z,44.08
2023-05-19T05:46:46.112Z,44.12
2023-05-19T05:47:52.252Z,44.13
2023-05-19T05:48:58.316Z,44.06
2023-05-19T05:50:04.384Z,44.12
2023-05-19T05:51:10.474Z,44.2
2023-05-19T05:52:16.517Z,44.21
2023-05-19T05:53:22.663Z,44.15
2023-05-19T05:54:28.755Z,44.13
2023-05-19T05:55:35.186Z,44.04
2023-05-19T05:56:40.938Z,44.08
2023-05-19T05:57:47.024Z,44.09
2023-05-19T05:58:53.135Z,44.13
2023-05-19T05:59:59.232Z,44.12
2023-05-19T06:01:05.411Z,44.08
2023-05-19T06:02:11.496Z,44.08
2023-05-19T06:03:17.651Z,44.09
2023-05-19T06:04:23.623Z,44.13
2023-05-19T06:05:29.702Z,44.08
2023-05-19T06:06:35.788Z,44.13
2023-05-19T06:07:41.893Z,44.11
2023-05-19T06:08:47.986Z,44.14
2023-05-19T06:09:54.070Z,44.2
2023-05-19T06:11:00.164Z,44.2
2023-05-19T06:12:06.262Z,44.24
2023-05-19T06:13:12.290Z,44.09
2023-05-19T06:14:18.464Z,44.11
2023-05-19T06:15:24.552Z,44.14
2023-05-19T06:16:30.744Z,44.14
2023-05-19T06:17:36.768Z,44.13
2023-05-19T06:18:42.889Z,44.12
2023-05-19T06:19:48.929Z,44.12
2023-05-19T06:20:55.024Z,44.16
2023-05-19T06:22:01.115Z,45.13
2023-05-19T06:23:07.223Z,45.23
2023-05-19T06:24:13.301Z,44.67
2023-05-19T06:25:19.321Z,45.19
2023-05-19T06:26:25.494Z,47.24
2023-05-19T06:27:32.643Z,47.44
2023-05-19T06:28:37.684Z,47.26
2023-05-19T06:29:43.781Z,46.15
2023-05-19T06:30:49.875Z,45.63
2023-05-19T06:31:56.022Z,45.37
2023-05-19T06:33:02.148Z,44.75
2023-05-19T06:34:08.149Z,44.88
2023-05-19T06:35:14.238Z,45.36
2023-05-19T06:36:20.343Z,44.82
2023-05-19T06:37:26.450Z,45.07
2023-05-19T06:38:32.685Z,44.91
2023-05-19T06:39:38.611Z,44.24
2023-05-19T06:40:44.740Z,44.89
2023-05-19T06:41:50.812Z,44.93
2023-05-19T06:42:56.896Z,45.05
2023-05-19T06:44:02.993Z,43.78
2023-05-19T06:45:09.122Z,43.55
2023-05-19T06:46:15.213Z,43.61
2023-05-19T06:47:21.307Z,43.91
2023-05-19T06:48:27.403Z,43.65
2023-05-19T06:49:33.503Z,43.65
2023-05-19T06:50:39.620Z,43.76
2023-05-19T06:51:45.707Z,44.12
2023-05-19T06:52:51.780Z,43.95
2023-05-19T06:53:57.878Z,43.79
2023-05-19T06:55:03.970Z,43.08
2023-05-19T06:56:10.053Z,43.24
2023-05-19T06:57:16.154Z,43.17
2023-05-19T06:58:22.226Z,43.8
2023-05-19T06:59:28.363Z,43.77
2023-05-19T07:00:34.603Z,43.42
2023-05-19T07:01:40.567Z,43.3
2023-05-19T07:02:46.711Z,42.58
2023-05-19T07:03:52.858Z,43.04
2023-05-19T07:04:58.805Z,43.2
2023-05-19T07:06:07.113Z,42.58
2023-05-19T07:07:11.012Z,42.68
2023-05-19T07:08:17.099Z,42.55
2023-05-19T07:09:29.341Z,42.59
2023-05-19T07:10:35.553Z,42.4
2023-05-19T07:11:41.524Z,42.41
2023-05-19T07:12:47.627Z,42.43
2023-05-19T07:13:53.748Z,42.46
2023-05-19T07:14:59.846Z,42.23
2023-05-19T07:16:05.954Z,43.22
2023-05-19T07:17:11.987Z,42.35
2023-05-19T07:18:18.100Z,41.98
2023-05-19T07:19:24.300Z,42.01
2023-05-19T07:20:30.489Z,41.9
2023-05-19T07:21:36.376Z,41.57
2023-05-19T07:22:42.467Z,41.75
2023-05-19T07:23:48.559Z,41.95
2023-05-19T07:24:54.596Z,41.95
2023-05-19T07:26:00.778Z,42
2023-05-19T07:27:06.846Z,41.7
2023-05-19T07:28:12.955Z,41.98
2023-05-19T07:29:19.045Z,41.59
2023-05-19T07:30:25.122Z,41.53
2023-05-19T07:31:31.279Z,41.58
2023-05-19T07:32:37.358Z,42.48
2023-05-19T07:33:43.405Z,42.08
2023-05-19T07:34:49.514Z,43.74
2023-05-19T07:35:55.598Z,42.2
2023-05-19T07:37:01.690Z,41.97
2023-05-19T07:38:07.709Z,41.61
2023-05-19T07:39:13.960Z,41.41
2023-05-19T07:40:19.999Z,41.71
2023-05-19T07:41:26.125Z,41.73
2023-05-19T07:42:32.174Z,41.87
2023-05-19T07:43:38.273Z,41.81
2023-05-19T07:44:44.372Z,41.93
2023-05-19T07:45:50.507Z,41.92
2023-05-19T07:46:56.551Z,41.83
2023-05-19T07:48:02.664Z,42.05
2023-05-19T07:49:08.750Z,42.04
2023-05-19T07:50:14.857Z,42.13
2023-05-19T07:51:20.958Z,42.13
2023-05-19T07:52:27.100Z,41.96
2023-05-19T07:53:33.134Z,42.08
2023-05-19T07:54:39.205Z,41.94
2023-05-19T07:55:45.312Z,42.22
2023-05-19T07:56:51.417Z,41.91
2023-05-19T07:57:57.498Z,41.63
2023-05-19T07:59:03.617Z,41.63
2023-05-19T08:00:09.711Z,41.67
2023-05-19T08:01:15.782Z,41.58
2023-05-19T08:02:21.849Z,41.87
2023-05-19T08:03:28.118Z,41.97
2023-05-19T08:04:34.112Z,41.7
2023-05-19T08:05:40.156Z,43.25
2023-05-19T08:06:46.249Z,41.69
2023-05-19T08:07:52.348Z,41.74
2023-05-19T08:08:58.425Z,41.96
2023-05-19T08:10:04.541Z,41.67
2023-05-19T08:11:10.555Z,41.58
2023-05-19T08:12:16.770Z,41.25
2023-05-19T08:13:22.808Z,41.62
2023-05-19T08:14:28.913Z,41.52
2023-05-19T08:15:35.025Z,41.74
2023-05-19T08:16:41.103Z,42.16
2023-05-19T08:17:47.229Z,42.67
2023-05-19T08:18:53.320Z,41.86
2023-05-19T08:19:59.389Z,41.71
2023-05-19T08:21:05.389Z,41.79
2023-05-19T08:22:11.500Z,41.89
2023-05-19T08:23:17.665Z,41.78
2023-05-19T08:24:23.781Z,41.86
2023-05-19T08:25:29.847Z,42.16
2023-05-19T08:26:37.639Z,41.93
2023-05-19T08:27:42.049Z,41.9
2023-05-19T08:28:48.168Z,41.8
2023-05-19T08:29:54.244Z,42.02
2023-05-19T08:31:00.395Z,42.15
2023-05-19T08:32:06.354Z,41.75
2023-05-19T08:33:12.486Z,41.87
2023-05-19T08:34:18.539Z,41.71
2023-05-19T08:35:24.728Z,41.58
2023-05-19T08:36:30.812Z,41.69
2023-05-19T08:37:36.923Z,41.51
2023-05-19T08:38:42.992Z,41.28
2023-05-19T08:39:49.080Z,41.43
2023-05-19T08:40:55.173Z,41.76
2023-05-19T08:42:01.283Z,41.73
2023-05-19T08:43:07.366Z,41.82
2023-05-19T08:44:13.493Z,41.79
2023-05-19T08:45:19.555Z,41.83
2023-05-19T08:46:25.704Z,41.65
2023-05-19T08:47:31.751Z,41.75
2023-05-19T08:48:37.846Z,41.81
2023-05-19T08:49:43.951Z,41.83
2023-05-19T08:50:50.033Z,41.78
2023-05-19T08:51:56.123Z,41.71
2023-05-19T08:53:02.235Z,41.82
2023-05-19T08:54:08.307Z,41.73
2023-05-19T08:55:14.401Z,41.82
2023-05-19T08:56:20.516Z,41.76
2023-05-19T08:57:26.527Z,41.69
2023-05-19T08:58:32.704Z,41.93
2023-05-19T08:59:38.795Z,41.71
2023-05-19T09:00:44.903Z,41.76
2023-05-19T09:01:51.002Z,41.97
2023-05-19T09:03:05.906Z,41.74
2023-05-19T09:04:03.365Z,41.41
2023-05-19T09:05:09.431Z,41.34
2023-05-19T09:06:15.360Z,41.5
2023-05-19T09:07:21.469Z,41.79
2023-05-19T09:08:27.470Z,41.55
2023-05-19T09:09:33.638Z,41.54
2023-05-19T09:10:39.752Z,41.55
2023-05-19T09:11:45.842Z,41.44
2023-05-19T09:12:51.929Z,41.45
2023-05-19T09:13:58.020Z,41.54
2023-05-19T09:15:04.119Z,42.15
2023-05-19T09:16:10.151Z,41.77
2023-05-19T09:17:16.209Z,41.73
2023-05-19T09:18:22.441Z,41.56
2023-05-19T09:19:28.636Z,41.39
2023-05-19T09:20:34.581Z,41.58
2023-05-19T09:21:40.680Z,41.78
2023-05-19T09:22:46.776Z,41.62
2023-05-19T09:23:52.868Z,41.45
2023-05-19T09:24:58.986Z,41.72
2023-05-19T09:26:05.074Z,41.67
2023-05-19T09:27:11.158Z,41.56
2023-05-19T09:28:17.284Z,41.52
2023-05-19T09:29:23.340Z,41.33
2023-05-19T09:30:29.427Z,41.52
2023-05-19T09:31:35.539Z,41.32
2023-05-19T09:32:41.674Z,41.5
2023-05-19T09:33:47.716Z,41.22
2023-05-19T09:34:53.815Z,40.95
2023-05-19T09:35:59.935Z,41.02
2023-05-19T09:38:12.102Z,40.7
2023-05-19T09:39:18.109Z,40.92
2023-05-19T09:40:24.290Z,40.39
2023-05-19T09:41:30.398Z,40.28
2023-05-19T09:42:36.478Z,40.49
2023-05-19T09:43:42.572Z,40.92
2023-05-19T09:44:48.672Z,41.03
2023-05-19T09:45:54.820Z,41.1
2023-05-19T09:47:00.855Z,41.06
2023-05-19T09:48:07.004Z,41.11
2023-05-19T09:49:13.023Z,41.13
2023-05-19T09:50:19.140Z,41.16
2023-05-19T09:51:25.166Z,41.4
2023-05-19T09:52:31.264Z,40.91
2023-05-19T09:53:37.419Z,41.23
2023-05-19T09:54:44.337Z,41.16
2023-05-19T09:55:49.618Z,40.91
2023-05-19T09:56:55.712Z,40.93
2023-05-19T09:58:01.819Z,41.13
2023-05-19T09:59:07.912Z,41.13
2023-05-19T10:00:13.992Z,41.37
2023-05-19T10:01:20.181Z,40.81
2023-05-19T10:02:26.227Z,40.38
2023-05-19T10:03:32.265Z,40.32
2023-05-19T10:04:38.388Z,40.33
2023-05-19T10:05:44.480Z,40.14
2023-05-19T10:06:50.559Z,39.91
2023-05-19T10:07:56.649Z,40.18
2023-05-19T10:09:02.747Z,40.23
2023-05-19T10:10:08.821Z,40.92
2023-05-19T10:11:14.933Z,40.71
2023-05-19T10:12:21.032Z,41.01
2023-05-19T10:13:27.123Z,40.84
2023-05-19T10:14:33.279Z,41.01
2023-05-19T10:15:50.021Z,41.15
2023-05-19T10:16:45.449Z,41.23
2023-05-19T10:17:51.575Z,40.71
2023-05-19T10:18:57.609Z,40.74
2023-05-19T10:20:03.688Z,40.65
2023-05-19T10:21:09.836Z,41.02
2023-05-19T10:22:15.911Z,40.74
2023-05-19T10:23:21.914Z,40.96
2023-05-19T10:24:28.015Z,40.85
2023-05-19T10:25:34.384Z,40.74
2023-05-19T10:26:40.274Z,40.8
2023-05-19T10:27:46.368Z,41.12
2023-05-19T10:28:52.455Z,40.76
2023-05-19T10:29:58.581Z,40.95
2023-05-19T10:31:04.653Z,41.34
2023-05-19T10:32:10.801Z,40.77
2023-05-19T10:33:16.876Z,40.99
2023-05-19T10:34:22.929Z,41.1
2023-05-19T10:35:29.039Z,40.76
2023-05-19T10:36:35.048Z,40.63
2023-05-19T10:37:41.233Z,40.76
2023-05-19T10:38:47.293Z,40.42
2023-05-19T10:39:53.448Z,40.12
2023-05-19T10:40:59.499Z,40.6
2023-05-19T10:42:05.584Z,40.43
2023-05-19T10:43:11.685Z,41.01
2023-05-19T10:44:17.755Z,40.65
2023-05-19T10:45:23.862Z,40.56
2023-05-19T10:46:30.012Z,40.78
2023-05-19T10:47:36.034Z,40.53
2023-05-19T10:48:42.091Z,40.2
2023-05-19T10:49:54.380Z,40.75
2023-05-19T10:51:00.480Z,40.39
2023-05-19T10:52:06.579Z,40.52
2023-05-19T10:53:12.600Z,40.6
2023-05-19T10:54:18.768Z,40.83
2023-05-19T10:55:24.783Z,40.67
2023-05-19T10:56:30.957Z,40.5
2023-05-19T10:57:37.087Z,40.61
2023-05-19T10:58:43.148Z,40.49
2023-05-19T10:59:49.243Z,40.89
2023-05-19T11:00:55.349Z,40.77
2023-05-19T11:02:01.393Z,40.78
2023-05-19T11:03:07.717Z,40.97
2023-05-19T11:04:13.707Z,40.97
2023-05-19T11:05:19.722Z,40.74
2023-05-19T11:06:25.816Z,40.7
2023-05-19T11:07:31.931Z,40.77
2023-05-19T11:08:38.008Z,40.85
2023-05-19T11:09:44.102Z,40.84
2023-05-19T11:10:50.196Z,40.86
2023-05-19T11:11:56.303Z,40.63
2023-05-19T11:13:02.308Z,41.06
2023-05-19T11:14:08.480Z,40.81
2023-05-19T11:15:14.591Z,40.85
2023-05-19T11:16:20.697Z,40.91
2023-05-19T11:17:26.781Z,40.82
2023-05-19T11:18:32.861Z,41.09
2023-05-19T11:19:38.968Z,40.86
2023-05-19T11:20:45.056Z,40.66
2023-05-19T11:21:51.162Z,40.75
2023-05-19T11:22:57.337Z,40.73
2023-05-19T11:24:03.391Z,41.07
2023-05-19T11:25:09.468Z,40.39
2023-05-19T11:26:15.446Z,39.99
2023-05-19T11:27:21.539Z,41
2023-05-19T11:28:27.756Z,41.41
2023-05-19T11:29:34.868Z,40.74
2023-05-19T11:30:39.909Z,40.71
2023-05-19T11:31:46.055Z,40.44
2023-05-19T11:32:52.116Z,40.66
2023-05-19T11:33:58.187Z,40.68
2023-05-19T11:35:04.411Z,40.57
2023-05-19T11:36:10.379Z,40.59
2023-05-19T11:37:16.505Z,40.64
2023-05-19T11:38:22.491Z,40.39
2023-05-19T11:39:28.663Z,40.31
2023-05-19T11:40:34.767Z,40.19
2023-05-19T11:41:40.849Z,40.2
2023-05-19T11:42:47.016Z,40.35
2023-05-19T11:43:53.058Z,40.5
2023-05-19T11:44:59.126Z,40.33
2023-05-19T11:46:05.294Z,40.54
2023-05-19T11:47:11.335Z,40.33
2023-05-19T11:48:17.553Z,40.11
2023-05-19T11:49:23.508Z,40.2
2023-05-19T11:50:29.600Z,40.24
2023-05-19T11:51:35.719Z,40.3
2023-05-19T11:52:41.788Z,40.14
2023-05-19T11:53:47.876Z,39.88
2023-05-19T11:54:53.995Z,40.68
2023-05-19T11:56:00.084Z,40.57
2023-05-19T11:57:06.178Z,40.02
2023-05-19T11:58:12.299Z,40.01
2023-05-19T11:59:18.362Z,39.92
